Time;durP1;ratioP1;P1;durP2;ratioP2;P2;SDS_P1;SDS_P2;PMS_P1;PMS_P2;Temp;Humidity;BMP_temperature;BMP_pressure;BME280_temperature;BME280_humidity;BME280_pressure;Samples;Min_cycle;Max_cycle;Signal;HPM_P1;HPM_P2
2022/02/20 00:01:26;;;;;;;0.63;0.63;;;;;;;5.60;52.76;98818.78;5034246;28;20034;-76
2022/02/20 00:03:52;;;;;;;1.55;1.50;;;;;;;5.67;52.66;98828.22;5023916;28;20160;-76
2022/02/20 00:06:17;;;;;;;1.08;1.08;;;;;;;5.62;52.63;98829.94;5032320;28;20029;-76
2022/02/20 00:08:43;;;;;;;0.68;0.68;;;;;;;5.65;52.85;98815.34;5034193;28;20384;-76
2022/02/20 00:11:08;;;;;;;0.60;0.60;;;;;;;5.65;52.92;98817.06;5034220;28;20478;-76
2022/02/20 00:13:34;;;;;;;0.50;0.50;;;;;;;5.71;53.11;98813.69;5032765;28;20492;-76
2022/02/20 00:15:59;;;;;;;0.60;0.60;;;;;;;5.64;53.27;98818.78;5033910;28;20117;-76
2022/02/20 00:18:24;;;;;;;0.63;0.63;;;;;;;5.66;53.39;98827.38;5034075;28;20021;-76
2022/02/20 00:20:50;;;;;;;0.52;0.52;;;;;;;5.71;53.30;98822.25;5032760;28;20076;-76
2022/02/20 00:23:16;;;;;;;0.50;0.50;;;;;;;5.77;53.32;98813.69;5033918;28;20040;-76
2022/02/20 00:25:42;;;;;;;1.33;1.23;;;;;;;5.67;54.32;98813.66;5033677;28;20056;-77
2022/02/20 00:28:07;;;;;;;1.20;1.15;;;;;;;5.67;54.24;98807.66;5033868;28;20021;-76
2022/02/20 00:30:33;;;;;;;1.92;0.95;;;;;;;5.72;53.95;98813.66;5033731;28;20022;-76
2022/02/20 00:33:00;;;;;;;0.50;0.50;;;;;;;5.63;54.93;98811.06;5029644;28;20024;-76
2022/02/20 00:35:30;;;;;;;0.85;0.85;;;;;;;5.61;56.35;98812.81;5025171;28;20032;-76
2022/02/20 00:37:56;;;;;;;1.08;1.05;;;;;;;5.57;56.62;98813.63;5033656;28;20501;-76
2022/02/20 00:40:23;;;;;;;0.57;0.57;;;;;;;5.51;57.27;98804.22;5033642;28;20099;-76
2022/02/20 00:42:48;;;;;;;0.50;0.50;;;;;;;5.46;57.82;98811.00;5033475;28;20036;-76
2022/02/20 00:45:13;;;;;;;0.50;0.50;;;;;;;5.37;58.81;98814.44;5032056;28;20030;-76
2022/02/20 00:47:39;;;;;;;2.47;0.95;;;;;;;5.28;59.39;98824.69;5033381;28;20030;-76
2022/02/20 00:50:05;;;;;;;0.50;0.50;;;;;;;5.27;59.08;98833.25;5033440;28;20021;-76
2022/02/20 00:52:30;;;;;;;0.60;0.60;;;;;;;5.31;59.26;98829.81;5033445;28;20495;-76
2022/02/20 00:54:56;;;;;;;2.08;1.95;;;;;;;5.30;60.12;98828.09;5033180;28;20032;-76
2022/02/20 00:57:21;;;;;;;0.60;0.60;;;;;;;5.31;59.98;98824.66;5033182;28;20025;-76
2022/02/20 00:59:47;;;;;;;0.88;0.88;;;;;;;5.25;60.88;98808.38;5031932;28;20021;-76
2022/02/20 08:01:00;;;;;;;0.47;0.47;;;;;;;6.73;69.59;98960.47;5684373;23;20104;-66
2022/02/20 08:03:26;;;;;;;0.45;0.45;;;;;;;6.72;69.51;98969.06;4964027;28;20389;-66
2022/02/20 08:05:51;;;;;;;0.47;0.47;;;;;;;6.69;69.19;98963.91;4969782;28;20027;-66
2022/02/20 08:08:16;;;;;;;0.40;0.40;;;;;;;6.81;69.47;98963.03;4975574;28;20109;-70
2022/02/20 08:10:42;;;;;;;0.50;0.50;;;;;;;6.92;69.11;98957.03;4975368;28;20026;-70
2022/02/20 08:13:07;;;;;;;0.73;0.73;;;;;;;6.87;68.48;98961.31;4975452;28;20493;-66
2022/02/20 08:15:32;;;;;;;0.50;0.50;;;;;;;6.93;69.14;98958.75;5003738;23;20571;-77
2022/02/20 08:17:58;;;;;;;0.52;0.52;;;;;;;7.02;68.05;98962.19;4955834;28;20037;-77
2022/02/20 08:20:23;;;;;;;0.50;0.50;;;;;;;7.15;68.02;98956.13;4956072;28;20023;-77
2022/02/20 08:22:49;;;;;;;0.80;0.80;;;;;;;7.29;67.52;98959.53;4955914;28;20476;-77
2022/02/20 08:25:14;;;;;;;0.50;0.50;;;;;;;7.39;67.12;98957.81;4955791;28;20027;-77
2022/02/20 08:27:40;;;;;;;0.50;0.50;;;;;;;7.18;66.90;98964.72;4955798;29;20172;-77
2022/02/20 08:30:09;;;;;;;0.50;0.50;;;;;;;7.32;66.84;98956.13;4955840;28;20464;-77
2022/02/20 08:32:35;;;;;;;0.43;0.43;;;;;;;7.27;67.01;98950.97;4959153;28;20383;-77
2022/02/20 08:35:00;;;;;;;0.40;0.40;;;;;;;7.28;67.23;98959.56;4966767;28;20105;-77
2022/02/20 08:37:26;;;;;;;0.50;0.50;;;;;;;7.29;66.70;98966.41;4974896;28;20073;-77
2022/02/20 08:39:52;;;;;;;0.90;0.90;;;;;;;7.21;67.22;98974.19;4974861;28;20038;-77
2022/02/20 08:42:17;;;;;;;0.47;0.47;;;;;;;7.23;66.84;98972.44;4973611;28;20026;-77
2022/02/20 08:44:43;;;;;;;0.50;0.50;;;;;;;7.21;66.98;98974.19;4974734;28;20019;-77
2022/02/20 08:47:09;;;;;;;0.60;0.60;;;;;;;7.21;67.05;98984.50;4973235;28;20026;-77
2022/02/20 08:49:36;;;;;;;0.50;0.50;;;;;;;7.09;67.08;98984.50;4974659;28;20113;-77
2022/02/20 08:52:02;;;;;;;0.40;0.40;;;;;;;7.07;67.62;98991.38;4974755;28;20034;-77
2022/02/20 08:54:28;;;;;;;0.40;0.40;;;;;;;7.08;67.34;98987.94;4974380;28;20041;-77
2022/02/20 08:56:53;;;;;;;0.50;0.50;;;;;;;7.13;66.71;98978.47;4974307;28;20022;-77
2022/02/20 08:59:18;;;;;;;0.40;0.40;;;;;;;7.14;66.63;98977.59;4974609;28;20571;-77
2022/02/20 09:01:43;;;;;;;0.40;0.40;;;;;;;7.28;66.45;98975.88;4972574;28;20023;-77
2022/02/20 09:04:12;;;;;;;0.40;0.40;;;;;;;7.34;66.42;98975.84;4962846;28;20030;-77
2022/02/20 09:06:38;;;;;;;0.50;0.50;;;;;;;7.21;66.57;98969.03;4974114;28;20041;-77
2022/02/20 09:09:03;;;;;;;0.73;0.70;;;;;;;7.35;66.12;98982.75;4974247;28;20480;-77
2022/02/20 09:11:29;;;;;;;0.50;0.50;;;;;;;7.46;65.65;98965.53;4974135;28;20105;-77
2022/02/20 09:13:54;;;;;;;0.40;0.40;;;;;;;7.35;65.70;98977.59;4974255;28;20046;-77
2022/02/20 09:16:19;;;;;;;1.05;1.05;;;;;;;7.38;65.51;98967.25;4972425;28;20027;-77
2022/02/20 09:18:45;;;;;;;0.52;0.52;;;;;;;7.41;65.24;98961.25;4974258;28;20031;-77
2022/02/20 09:21:11;;;;;;;0.40;0.40;;;;;;;7.36;65.34;98958.69;4974171;28;20023;-77
2022/02/20 09:23:36;;;;;;;0.60;0.60;;;;;;;7.37;65.22;98965.56;4973922;28;20031;-77
2022/02/20 09:26:03;;;;;;;0.47;0.47;;;;;;;7.41;65.00;98972.41;4973745;28;20022;-77
2022/02/20 09:28:29;;;;;;;0.45;0.45;;;;;;;7.53;64.68;98970.66;4974020;28;20034;-77
2022/02/20 09:30:54;;;;;;;0.47;0.47;;;;;;;7.77;64.57;98968.00;4973813;28;20030;-77
2022/02/20 09:33:19;;;;;;;0.50;0.50;;;;;;;7.69;63.95;98964.63;4968169;28;20070;-77
2022/02/20 09:35:45;;;;;;;0.65;0.47;;;;;;;7.70;63.45;98959.44;4967185;28;20065;-77
2022/02/20 09:38:10;;;;;;;0.50;0.50;;;;;;;7.74;63.83;98965.47;4972529;28;20109;-77
2022/02/20 09:40:36;;;;;;;0.40;0.40;;;;;;;7.76;64.16;98963.72;4973732;28;20078;-77
2022/02/20 09:43:02;;;;;;;0.40;0.40;;;;;;;7.64;63.99;98963.75;4973689;28;20025;-77
2022/02/20 09:45:27;;;;;;;0.40;0.40;;;;;;;7.72;63.94;98957.72;4973745;28;20022;-77
2022/02/20 09:47:53;;;;;;;6.72;1.88;;;;;;;7.65;64.11;98950.00;4973527;28;20109;-77
2022/02/20 09:50:18;;;;;;;0.40;0.40;;;;;;;7.64;63.82;98959.47;4973557;28;20034;-77
2022/02/20 09:52:43;;;;;;;0.40;0.40;;;;;;;7.73;63.86;98949.09;4973533;28;20018;-77
2022/02/20 09:55:09;;;;;;;0.57;0.57;;;;;;;7.73;63.24;98935.34;4973529;28;20054;-77
2022/02/20 09:57:35;;;;;;;0.40;0.40;;;;;;;7.86;63.52;98939.59;4973544;28;20027;-77
2022/02/20 10:00:00;;;;;;;0.40;0.40;;;;;;;7.95;63.00;98942.13;4973445;28;20472;-77
2022/02/20 10:02:34;;;;;;;0.50;0.50;;;;;;;7.88;63.53;98937.88;4968949;28;20456;-77
2022/02/20 10:05:00;;;;;;;0.40;0.40;;;;;;;7.92;62.78;98933.53;4965032;28;20521;-77
2022/02/20 10:07:33;;;;;;;0.50;0.50;;;;;;;8.06;62.99;98925.75;4973079;28;20031;-77
2022/02/20 10:10:03;;;;;;;0.40;0.40;;;;;;;8.08;62.79;98916.28;4973372;28;20031;-77
2022/02/20 10:12:30;;;;;;;3.13;1.65;;;;;;;8.05;62.86;98921.44;4973162;28;20030;-77
2022/02/20 10:14:56;;;;;;;0.52;0.52;;;;;;;8.13;62.85;98930.03;4972829;28;20026;-77
2022/02/20 10:17:23;;;;;;;0.40;0.40;;;;;;;8.12;62.90;98925.69;4973102;28;20037;-77
2022/02/20 10:19:59;;;;;;;0.47;0.47;;;;;;;8.22;62.89;98929.97;4973161;28;20080;-77
2022/02/20 10:22:29;;;;;;;0.55;0.55;;;;;;;8.30;62.29;98933.34;4973125;28;20428;-77
2022/02/20 10:25:00;;;;;;;0.50;0.50;;;;;;;8.23;62.61;98931.66;4973309;28;20105;-77
2022/02/20 10:27:25;;;;;;;0.60;0.60;;;;;;;8.33;62.68;98935.06;4973081;28;20031;-77
2022/02/20 10:30:22;;;;;;;0.50;0.50;;;;;;;8.40;62.51;98922.09;4973128;28;20026;-77
2022/02/20 10:33:06;;;;;;;0.40;0.40;;;;;;;8.46;62.15;98937.59;4968895;28;20030;-77
2022/02/20 10:35:39;;;;;;;0.40;0.40;;;;;;;8.47;62.50;98939.28;4965003;28;20038;-77
2022/02/20 10:38:13;;;;;;;0.50;0.50;;;;;;;8.43;62.40;98927.25;4972819;28;20023;-77
2022/02/20 10:40:40;;;;;;;0.40;0.40;;;;;;;8.58;62.79;98926.28;4973030;28;20033;-76
2022/02/20 10:43:07;;;;;;;0.52;0.52;;;;;;;8.72;62.29;98936.53;4973475;28;20033;-77
2022/02/20 10:45:38;;;;;;;0.40;0.40;;;;;;;8.96;62.05;98923.38;4972971;28;20018;-77
2022/02/20 10:48:13;;;;;;;0.50;0.50;;;;;;;8.90;61.54;98917.44;4973194;28;20029;-77
2022/02/20 10:50:39;;;;;;;0.65;0.65;;;;;;;8.65;62.53;98916.75;4973007;28;20023;-77
2022/02/20 10:53:06;;;;;;;0.60;0.60;;;;;;;8.96;61.04;98907.88;4972885;28;20065;-77
2022/02/20 10:55:36;;;;;;;1.08;0.63;;;;;;;8.89;61.06;98900.19;4971520;28;20026;-77
2022/02/20 10:58:12;;;;;;;0.40;0.40;;;;;;;9.04;60.99;98909.53;4972838;28;20058;-77
2022/02/20 11:00:49;;;;;;;0.50;0.50;;;;;;;9.07;60.62;98892.28;4972882;28;20110;-77
2022/02/20 11:03:15;;;;;;;2.67;1.25;;;;;;;9.09;60.55;98897.41;4967798;28;20439;-77
2022/02/20 11:05:41;;;;;;;1.25;0.98;;;;;;;9.08;60.85;98880.19;4965492;28;20022;-77
2022/02/20 11:08:07;;;;;;;0.50;0.50;;;;;;;9.07;61.02;98886.25;4972810;28;20472;-77
2022/02/20 11:10:33;;;;;;;1.08;0.68;;;;;;;9.31;60.34;98873.06;4972756;28;20031;-77
2022/02/20 11:13:00;;;;;;;1.45;1.35;;;;;;;9.58;59.36;98873.63;4972781;28;20058;-77
2022/02/20 11:15:27;;;;;;;0.40;0.40;;;;;;;9.86;58.56;98871.50;4972329;28;20026;-77
2022/02/20 11:17:54;;;;;;;0.70;0.70;;;;;;;9.48;59.02;98873.72;4972635;28;20524;-77
2022/02/20 11:20:20;;;;;;;0.88;0.88;;;;;;;9.32;59.82;98864.41;4972509;28;20050;-77
2022/02/20 11:22:51;;;;;;;0.57;0.57;;;;;;;9.57;59.07;98853.78;4972688;28;20034;-77
2022/02/20 11:25:17;;;;;;;0.80;0.80;;;;;;;9.26;59.20;98865.34;4973441;28;20122;-77
2022/02/20 11:27:43;;;;;;;0.50;0.50;;;;;;;9.04;60.19;98868.16;4974888;28;20484;-77
2022/02/20 11:30:10;;;;;;;0.40;0.40;;;;;;;9.10;60.69;98863.81;4976136;28;20039;-77
2022/02/20 11:32:41;;;;;;;0.80;0.80;;;;;;;9.28;60.40;98865.31;4971938;28;20014;-77
2022/02/20 11:35:09;;;;;;;0.50;0.50;;;;;;;9.18;60.26;98858.53;4968056;28;20030;-77
2022/02/20 11:37:54;;;;;;;6.47;0.88;;;;;;;9.16;59.87;98831.88;4975950;28;20033;-77
2022/02/20 11:40:21;;;;;;;0.47;0.47;;;;;;;9.16;60.41;98840.47;4976281;28;20027;-77
2022/02/20 11:42:58;;;;;;;0.60;0.60;;;;;;;9.21;60.45;98830.09;4975897;28;20027;-77
2022/02/20 11:45:25;;;;;;;1.70;1.60;;;;;;;9.24;60.20;98830.91;4975889;28;20488;-77
2022/02/20 11:48:01;;;;;;;0.50;0.50;;;;;;;9.37;59.75;98823.84;4975749;28;20027;-77
2022/02/20 11:50:26;;;;;;;2.50;1.85;;;;;;;9.31;59.89;98815.31;4975988;28;20027;-77
2022/02/20 11:52:57;;;;;;;0.50;0.50;;;;;;;9.36;60.29;98824.72;4975785;28;20026;-77
2022/02/20 11:55:27;;;;;;;0.70;0.70;;;;;;;9.30;59.92;98804.13;4975711;28;20480;-79
2022/02/20 11:58:10;;;;;;;3.40;1.10;;;;;;;9.26;60.40;98818.81;4975453;28;20101;-78
2022/02/20 12:00:37;;;;;;;0.95;0.95;;;;;;;9.25;60.39;98811.09;4975823;28;20114;-78
2022/02/20 12:03:17;;;;;;;1.25;1.15;;;;;;;9.35;60.09;98811.81;4971301;28;20035;-78
2022/02/20 12:06:08;;;;;;;0.88;0.88;;;;;;;9.37;60.01;98797.97;4961993;28;20569;-78
2022/02/20 12:08:39;;;;;;;0.50;0.50;;;;;;;9.42;59.72;98803.09;4975136;28;20065;-77
2022/02/20 12:11:25;;;;;;;0.40;0.40;;;;;;;9.66;59.73;98776.91;4975604;28;20121;-77
2022/02/20 12:14:11;;;;;;;0.40;0.40;;;;;;;9.84;58.72;98780.97;4975333;28;20026;-77
2022/02/20 12:16:41;;;;;;;0.50;0.50;;;;;;;9.67;59.07;98783.81;4975210;28;20035;-77
2022/02/20 12:19:17;;;;;;;0.50;0.50;;;;;;;9.58;59.00;98772.75;4975400;28;20085;-77
2022/02/20 12:21:59;;;;;;;0.40;0.40;;;;;;;9.76;59.17;98769.84;4975352;28;20502;-77
2022/02/20 12:24:25;;;;;;;0.30;0.30;;;;;;;9.86;58.80;98768.84;4974815;28;20027;-76
2022/02/20 12:26:55;;;;;;;0.40;0.40;;;;;;;9.91;58.72;98761.88;4974757;28;20110;-75
2022/02/20 12:29:24;;;;;;;0.40;0.40;;;;;;;9.91;59.08;98761.88;4975092;28;20034;-76
2022/02/20 12:32:01;;;;;;;0.57;0.57;;;;;;;9.81;58.60;98768.06;4973332;28;20106;-77
2022/02/20 12:34:57;;;;;;;0.30;0.30;;;;;;;9.74;58.69;98769.03;4964394;28;20045;-76
2022/02/20 12:37:34;;;;;;;0.40;0.40;;;;;;;9.89;58.97;98762.78;4974434;28;20053;-77
2022/02/20 12:40:07;;;;;;;2.45;0.50;;;;;;;10.06;58.92;98750.44;4973708;28;20030;-82
2022/02/20 12:42:38;;;;;;;0.40;0.40;;;;;;;9.78;59.23;98747.41;4974868;28;20142;-82
2022/02/20 12:45:17;;;;;;;0.40;0.40;;;;;;;9.86;59.30;98744.69;4973757;28;20037;-82
2022/02/20 12:47:45;;;;;;;0.30;0.30;;;;;;;9.84;58.87;98743.88;4974602;28;20054;-82
2022/02/20 12:50:12;;;;;;;1.25;0.75;;;;;;;10.15;58.73;98744.22;4975052;28;20034;-82
2022/02/20 12:52:39;;;;;;;1.02;0.93;;;;;;;10.20;57.83;98729.47;4974748;28;20026;-84
2022/02/20 12:55:06;;;;;;;0.40;0.40;;;;;;;10.29;58.13;98721.56;4974598;28;20033;-82
2022/02/20 12:57:36;;;;;;;0.40;0.40;;;;;;;10.29;58.01;98737.97;4974518;28;20075;-82
2022/02/20 13:00:07;;;;;;;0.50;0.50;;;;;;;10.44;57.69;98729.09;4974564;28;20404;-83
2022/02/20 13:02:35;;;;;;;0.40;0.40;;;;;;;10.41;57.98;98730.88;4970101;28;20041;-81
2022/02/20 13:05:22;;;;;;;0.40;0.40;;;;;;;10.32;57.68;98716.34;4966384;28;20468;-84
2022/02/20 13:07:50;;;;;;;0.68;0.68;;;;;;;10.52;56.74;98729.78;4974007;28;20062;-84
2022/02/20 13:10:18;;;;;;;0.40;0.40;;;;;;;10.58;56.86;98733.13;4974367;28;20023;-84
2022/02/20 13:12:54;;;;;;;0.40;0.40;;;;;;;10.61;57.28;98723.56;4973111;28;20054;-85
2022/02/20 13:15:20;;;;;;;0.30;0.30;;;;;;;10.91;56.76;98722.13;4974311;28;20543;-85
2022/02/20 13:18:10;;;;;;;0.50;0.50;;;;;;;10.78;56.65;98725.81;4974254;28;20030;-84
2022/02/20 13:20:52;;;;;;;0.32;0.32;;;;;;;10.47;56.83;98726.44;4974226;28;20034;-85
2022/02/20 13:23:23;;;;;;;0.60;0.60;;;;;;;10.85;56.72;98735.22;4974146;28;20019;-84
2022/02/20 13:25:55;;;;;;;0.40;0.40;;;;;;;10.88;56.42;98727.38;4974149;28;20062;-84
2022/02/20 13:28:24;;;;;;;0.40;0.40;;;;;;;11.01;56.69;98708.06;4974165;28;20023;-77
2022/02/20 13:30:50;;;;;;;0.40;0.40;;;;;;;10.60;56.75;98679.56;4972453;28;20492;-79
2022/02/20 13:33:20;;;;;;;1.27;0.68;;;;;;;10.53;57.86;98691.78;4963141;28;20389;-79
2022/02/20 13:35:46;;;;;;;;;;;;;;;10.63;56.84;98689.84;4967230;28;20552;-79
2022/02/20 13:38:14;;;;;;;0.60;0.60;;;;;;;11.13;56.07;98694.03;4973727;28;19956;-79
2022/02/20 13:40:43;;;;;;;0.40;0.40;;;;;;;11.63;55.18;98675.59;4956101;28;20033;-79
2022/02/20 13:43:14;;;;;;;0.40;0.40;;;;;;;11.19;54.84;98680.06;4973377;28;20495;-79
2022/02/20 13:45:58;;;;;;;0.40;0.40;;;;;;;10.68;56.56;98672.47;4973548;28;20022;-79
2022/02/20 13:48:29;;;;;;;0.73;0.50;;;;;;;10.70;57.24;98675.91;4971425;28;20038;-79
2022/02/20 13:51:22;;;;;;;0.55;0.55;;;;;;;10.39;57.50;98671.31;4973198;28;20019;-79
2022/02/20 13:53:58;;;;;;;0.95;0.60;;;;;;;10.37;58.27;98678.28;4972082;28;20059;-79
2022/02/20 13:56:39;;;;;;;0.30;0.30;;;;;;;10.16;59.02;98676.06;4973074;28;20054;-78
2022/02/20 13:59:05;;;;;;;0.60;0.60;;;;;;;9.95;59.71;98674.66;4972134;28;20027;-77
2022/02/20 14:01:42;;;;;;;0.50;0.50;;;;;;;10.15;59.44;98676.91;4973085;28;20022;-78
2022/02/20 14:04:47;;;;;;;3.78;1.23;;;;;;;10.20;59.61;98670.78;4958195;28;20181;-78
2022/02/20 14:07:16;;;;;;;0.73;0.73;;;;;;;10.29;59.24;98669.78;4927994;29;20043;-76
2022/02/20 14:09:53;;;;;;;;;;;;;;;10.32;59.57;98674.91;4935136;29;20024;-78
2022/02/20 14:12:24;;;;;;;0.40;0.40;;;;;;;10.20;60.08;98668.22;4934734;29;19970;-78
2022/02/20 14:15:13;;;;;;;0.50;0.50;;;;;;;10.08;60.59;98654.63;4934928;29;20032;-79
2022/02/20 14:17:59;;;;;;;0.65;0.65;;;;;;;10.12;60.70;98661.44;4933135;29;20027;-79
2022/02/20 14:20:33;;;;;;;0.35;0.35;;;;;;;10.04;60.64;98649.47;4934733;29;20099;-78
2022/02/20 14:23:19;;;;;;;0.40;0.40;;;;;;;9.97;60.77;98645.31;4934381;29;20551;-77
2022/02/20 14:25:56;;;;;;;0.40;0.40;;;;;;;10.02;60.99;98643.50;4932813;29;20760;-77
2022/02/20 14:28:26;;;;;;;0.43;0.43;;;;;;;9.96;61.35;98625.50;4934362;29;20028;-75
2022/02/20 14:31:09;;;;;;;0.45;0.45;;;;;;;10.02;61.35;98625.38;4934697;29;20028;-75
2022/02/20 14:33:36;;;;;;;0.40;0.40;;;;;;;10.00;61.80;98626.28;4957834;28;20019;-75
2022/02/20 14:36:05;;;;;;;0.35;0.35;;;;;;;9.96;61.45;98641.03;4968376;28;20023;-76
2022/02/20 14:38:35;;;;;;;0.38;0.38;;;;;;;9.91;61.67;98627.31;4973003;28;20027;-76
2022/02/20 14:41:00;;;;;;;0.40;0.40;;;;;;;9.83;61.97;98626.59;4971648;28;20097;-73
2022/02/20 14:43:26;;;;;;;0.52;0.52;;;;;;;9.87;62.14;98623.06;4972651;28;20468;-75
2022/02/20 14:45:52;;;;;;;0.40;0.40;;;;;;;9.78;61.76;98605.97;4972425;28;20030;-75
2022/02/20 14:48:18;;;;;;;0.85;0.85;;;;;;;9.84;62.35;98617.94;4963580;28;20141;-75
2022/02/20 14:50:43;;;;;;;0.40;0.40;;;;;;;9.77;62.58;98611.19;4953207;28;20041;-75
2022/02/20 14:53:10;;;;;;;0.40;0.40;;;;;;;9.76;62.67;98604.28;4953511;28;20058;-75
2022/02/20 14:55:35;;;;;;;0.45;0.45;;;;;;;9.69;62.61;98602.69;4953529;28;20028;-75
2022/02/20 14:58:03;;;;;;;0.50;0.50;;;;;;;9.69;62.76;98600.09;4953618;28;20425;-75
2022/02/20 15:00:29;;;;;;;0.40;0.40;;;;;;;9.61;62.67;98591.59;4956171;28;20077;-75
2022/02/20 15:02:54;;;;;;;4.18;1.00;;;;;;;9.68;62.57;98588.03;4963080;28;20424;-75
2022/02/20 15:05:20;;;;;;;0.30;0.30;;;;;;;9.64;62.60;98561.38;4968116;28;20018;-75
2022/02/20 15:07:45;;;;;;;0.40;0.40;;;;;;;9.70;62.83;98596.63;4976179;28;20088;-75
2022/02/20 15:10:12;;;;;;;0.50;0.50;;;;;;;9.62;63.02;98576.06;4963040;28;20078;-75
2022/02/20 15:12:41;;;;;;;0.50;0.50;;;;;;;9.67;63.18;98578.56;4957010;28;20020;-75
2022/02/20 15:15:08;;;;;;;0.60;0.60;;;;;;;9.70;62.90;98575.94;4956710;28;20038;-74
2022/02/20 15:17:33;;;;;;;0.50;0.50;;;;;;;9.68;63.24;98565.63;4956606;28;20452;-75
2022/02/20 15:20:01;;;;;;;0.30;0.30;;;;;;;9.62;62.95;98572.59;4956776;29;20031;-74
2022/02/20 15:22:28;;;;;;;0.43;0.43;;;;;;;9.65;62.56;98567.41;4955559;29;20050;-75
2022/02/20 15:24:53;;;;;;;0.38;0.38;;;;;;;9.73;62.98;98575.88;4956780;28;20110;-75
2022/02/20 15:27:19;;;;;;;0.40;0.40;;;;;;;9.72;63.28;98566.41;4956562;28;20054;-75
2022/02/20 15:29:45;;;;;;;0.40;0.40;;;;;;;9.80;62.72;98567.13;4956706;28;20038;-75
2022/02/20 15:32:11;;;;;;;0.40;0.40;;;;;;;9.73;62.29;98566.38;4956885;28;20474;-75
2022/02/20 15:34:36;;;;;;;0.40;0.40;;;;;;;9.73;62.51;98555.19;4967834;28;20057;-76
2022/02/20 15:37:02;;;;;;;0.50;0.50;;;;;;;9.62;63.31;98562.25;4975675;28;20049;-75
2022/02/20 15:39:27;;;;;;;0.40;0.40;;;;;;;9.65;62.83;98562.22;4972373;28;20090;-74
2022/02/20 15:41:53;;;;;;;0.60;0.60;;;;;;;9.62;63.30;98551.91;4967672;28;20023;-74
2022/02/20 15:44:23;;;;;;;0.40;0.40;;;;;;;9.58;63.28;98550.28;4974395;28;20030;-74
2022/02/20 15:46:52;;;;;;;0.57;0.57;;;;;;;9.61;63.29;98550.22;4975548;28;20033;-74
2022/02/20 15:49:17;;;;;;;0.88;0.88;;;;;;;9.61;62.88;98539.88;4975714;28;20065;-75
2022/02/20 15:51:43;;;;;;;0.50;0.50;;;;;;;9.62;63.06;98538.97;4975524;28;20495;-75
2022/02/20 15:54:09;;;;;;;0.85;0.75;;;;;;;9.57;63.25;98531.31;4975643;28;20487;-75
2022/02/20 15:56:36;;;;;;;0.65;0.65;;;;;;;9.55;63.02;98508.94;4975336;28;20127;-75
2022/02/20 15:59:02;;;;;;;0.40;0.40;;;;;;;9.56;63.41;98505.47;4975611;28;20129;-75
2022/02/20 16:01:28;;;;;;;0.40;0.40;;;;;;;9.55;63.39;98504.63;4975592;28;20026;-75
2022/02/20 16:03:53;;;;;;;0.60;0.60;;;;;;;9.55;63.41;98502.03;4964799;28;20019;-76
2022/02/20 16:06:18;;;;;;;0.50;0.50;;;;;;;9.58;63.20;98488.22;4972665;28;20394;-75
2022/02/20 16:08:44;;;;;;;0.60;0.60;;;;;;;9.51;63.52;98488.31;4974866;28;20027;-75
2022/02/20 16:11:14;;;;;;;0.50;0.50;;;;;;;9.51;63.34;98477.97;4963280;28;20031;-75
2022/02/20 16:13:40;;;;;;;1.75;1.05;;;;;;;9.52;63.78;98473.63;4974152;28;20110;-75
2022/02/20 16:16:05;;;;;;;0.40;0.40;;;;;;;9.56;63.77;98458.91;4974774;28;20166;-75
2022/02/20 16:18:31;;;;;;;0.40;0.40;;;;;;;9.57;63.38;98455.44;4974879;28;20153;-75
2022/02/20 16:20:57;;;;;;;0.38;0.38;;;;;;;9.49;63.85;98453.88;4973706;28;20121;-75
2022/02/20 16:23:22;;;;;;;0.40;0.40;;;;;;;9.39;64.15;98451.50;4974939;28;20023;-76
2022/02/20 16:25:48;;;;;;;0.75;0.75;;;;;;;9.35;64.20;98448.09;4973514;28;20031;-75
2022/02/20 16:28:14;;;;;;;1.10;0.50;;;;;;;9.24;65.21;98447.47;4974996;28;20027;-77
2022/02/20 16:30:40;;;;;;;0.47;0.47;;;;;;;9.17;65.07;98443.25;4974826;28;20058;-74
2022/02/20 16:33:07;;;;;;;6.60;0.65;;;;;;;9.15;65.62;98452.78;4969467;28;20045;-74
2022/02/20 16:35:34;;;;;;;0.40;0.40;;;;;;;9.06;65.91;98442.59;4966693;28;20081;-74
2022/02/20 16:38:05;;;;;;;0.50;0.50;;;;;;;9.09;65.77;98440.84;4973211;28;20118;-75
2022/02/20 16:40:35;;;;;;;0.40;0.40;;;;;;;9.08;66.14;98430.50;4967940;28;20452;-75
2022/02/20 16:43:06;;;;;;;0.90;0.90;;;;;;;9.01;66.34;98415.09;4970223;28;20499;-75
2022/02/20 16:45:39;;;;;;;0.40;0.40;;;;;;;8.99;66.44;98422.06;4974464;28;20034;-75
2022/02/20 16:48:06;;;;;;;0.40;0.40;;;;;;;8.95;66.59;98424.72;4974617;28;20027;-75
2022/02/20 16:50:31;;;;;;;0.65;0.65;;;;;;;8.97;66.52;98426.38;4974529;28;20038;-75
2022/02/20 16:52:57;;;;;;;0.55;0.55;;;;;;;8.98;65.97;98430.66;4974477;28;20019;-75
2022/02/20 16:55:22;;;;;;;0.47;0.47;;;;;;;9.04;66.13;98428.84;4974309;28;20058;-75
2022/02/20 16:57:48;;;;;;;0.60;0.60;;;;;;;9.03;65.94;98438.34;4974258;28;20057;-76
2022/02/20 17:00:14;;;;;;;0.45;0.45;;;;;;;9.07;65.54;98449.47;4974322;28;20075;-75
2022/02/20 17:02:39;;;;;;;0.50;0.50;;;;;;;9.09;65.85;98450.28;4970023;28;20057;-76
2022/02/20 17:05:04;;;;;;;0.50;0.50;;;;;;;9.05;65.76;98435.75;4964651;28;20027;-76
2022/02/20 17:07:30;;;;;;;0.57;0.57;;;;;;;9.09;65.46;98427.03;4974257;28;20035;-77
2022/02/20 17:09:56;;;;;;;0.40;0.40;;;;;;;9.09;65.65;98419.28;4970588;28;20023;-77
2022/02/20 17:12:21;;;;;;;0.50;0.50;;;;;;;9.09;65.52;98416.69;4964751;28;20045;-76
2022/02/20 17:14:48;;;;;;;0.40;0.40;;;;;;;9.12;65.43;98416.66;4974232;28;20036;-76
2022/02/20 17:17:15;;;;;;;0.50;0.50;;;;;;;9.18;65.13;98426.88;4974205;28;20442;-74
2022/02/20 17:19:41;;;;;;;0.40;0.40;;;;;;;9.15;65.09;98411.44;4974279;28;20022;-75
2022/02/20 17:22:06;;;;;;;0.40;0.40;;;;;;;9.18;65.12;98419.13;4973769;28;20034;-75
2022/02/20 17:24:31;;;;;;;0.40;0.40;;;;;;;9.22;64.77;98410.44;4973624;28;20031;-76
2022/02/20 17:26:58;;;;;;;0.40;0.40;;;;;;;9.21;64.80;98403.56;4973820;28;20031;-76
2022/02/20 17:29:24;;;;;;;0.45;0.45;;;;;;;9.24;64.62;98401.78;4974330;28;20034;-76
2022/02/20 17:31:50;;;;;;;0.30;0.30;;;;;;;9.22;64.46;98408.69;4972357;28;20022;-77
2022/02/20 17:34:15;;;;;;;0.50;0.50;;;;;;;9.21;64.65;98395.81;4963467;28;20115;-77
2022/02/20 17:36:40;;;;;;;0.80;0.80;;;;;;;9.24;64.63;98406.09;4973711;28;20508;-77
2022/02/20 17:39:06;;;;;;;0.43;0.43;;;;;;;9.25;64.17;98393.13;4970491;28;20114;-77
2022/02/20 17:41:31;;;;;;;0.52;0.52;;;;;;;9.25;64.09;98403.47;4965309;28;20576;-76
2022/02/20 17:43:57;;;;;;;0.45;0.45;;;;;;;9.27;64.23;98406.88;4972187;28;20476;-76
2022/02/20 17:46:22;;;;;;;0.40;0.40;;;;;;;9.25;64.33;98402.63;4973605;28;20550;-76
2022/02/20 17:48:48;;;;;;;0.50;0.50;;;;;;;9.19;64.76;98402.75;4973625;28;20026;-76
2022/02/20 17:51:13;;;;;;;0.45;0.45;;;;;;;9.26;64.52;98399.16;4973617;28;20030;-76
2022/02/20 17:53:39;;;;;;;0.40;0.40;;;;;;;9.24;64.34;98400.94;4973476;28;20027;-76
2022/02/20 17:56:04;;;;;;;0.50;0.50;;;;;;;9.25;64.05;98410.38;4973243;28;20027;-76
2022/02/20 17:58:31;;;;;;;1.05;1.05;;;;;;;9.27;64.30;98416.38;4973409;28;20054;-76
2022/02/20 18:00:56;;;;;;;0.50;0.50;;;;;;;9.25;64.62;98405.22;4973619;28;20428;-76
2022/02/20 18:03:21;;;;;;;0.60;0.60;;;;;;;9.09;66.51;98407.22;4967295;28;20077;-76
2022/02/20 18:05:47;;;;;;;0.65;0.65;;;;;;;8.94;67.75;98400.56;4966798;28;20114;-76
2022/02/20 18:08:13;;;;;;;0.50;0.50;;;;;;;8.93;67.19;98390.28;4973256;28;20080;-75
2022/02/20 18:10:39;;;;;;;0.68;0.68;;;;;;;8.99;67.03;98390.16;4965529;28;20031;-75
2022/02/20 18:13:04;;;;;;;0.40;0.40;;;;;;;8.99;66.70;98401.38;4969223;28;20038;-75
2022/02/20 18:15:30;;;;;;;0.75;0.75;;;;;;;9.07;65.52;98387.44;4973090;28;20093;-76
2022/02/20 18:17:57;;;;;;;0.60;0.60;;;;;;;9.11;65.68;98363.25;4973114;28;20049;-75
2022/02/20 18:20:23;;;;;;;0.40;0.40;;;;;;;9.06;65.63;98380.59;4973117;28;20655;-70
2022/02/20 18:22:52;;;;;;;0.45;0.45;;;;;;;9.09;65.42;98385.69;4973106;28;20034;-74
2022/02/20 18:25:18;;;;;;;0.38;0.38;;;;;;;9.13;65.67;98377.00;4973049;28;20031;-74
2022/02/20 18:27:44;;;;;;;0.50;0.50;;;;;;;9.20;65.02;98386.34;4972966;28;20026;-74
2022/02/20 18:30:13;;;;;;;0.40;0.40;;;;;;;9.23;64.92;98379.41;4971739;28;20030;-74
2022/02/20 18:32:41;;;;;;;0.70;0.70;;;;;;;9.23;64.67;98383.69;4968844;28;20101;-74
2022/02/20 18:35:08;;;;;;;0.30;0.30;;;;;;;9.24;64.83;98370.75;4963341;28;20037;-76
2022/02/20 18:37:34;;;;;;;0.50;0.50;;;;;;;9.17;65.49;98363.13;4972867;28;20518;-76
2022/02/20 18:39:59;;;;;;;5.55;0.82;;;;;;;9.15;65.84;98350.25;4958909;28;20047;-76
2022/02/20 18:42:25;;;;;;;0.40;0.40;;;;;;;9.11;66.03;98342.59;4953517;28;20031;-76
2022/02/20 18:44:51;;;;;;;0.40;0.40;;;;;;;9.08;65.82;98334.88;4952312;29;20122;-72
2022/02/20 18:47:17;;;;;;;0.40;0.40;;;;;;;9.03;66.18;98329.78;4953473;28;20027;-76